createdAt,value
2022-10-11T00:01:01.450Z,96571.05
2022-10-11T00:03:36.370Z,96570.65
2022-10-11T00:06:06.336Z,96574.42
2022-10-11T00:08:35.785Z,96575.77
2022-10-11T00:11:07.197Z,96574.02
2022-10-11T00:13:35.133Z,96574.71
2022-10-11T00:16:08.881Z,96577.31
2022-10-11T00:18:37.200Z,96575.26
2022-10-11T00:21:12.169Z,96575.80
2022-10-11T00:23:41.912Z,96575.02
2022-10-11T00:26:12.233Z,96572.26
2022-10-11T00:28:41.067Z,96574.67
2022-10-11T00:31:11.613Z,96574.92
2022-10-11T00:33:39.929Z,96577.44
2022-10-11T00:36:09.547Z,96579.22
2022-10-11T00:38:37.700Z,96579.79
2022-10-11T00:41:06.013Z,96581.48
2022-10-11T00:43:34.411Z,96581.39
2022-10-11T00:46:25.653Z,96585.20
2022-10-11T00:49:01.537Z,96578.91
2022-10-11T00:51:43.742Z,96577.77
2022-10-11T00:54:15.434Z,96580.73
2022-10-11T00:56:46.495Z,96579.55
2022-10-11T00:59:19.194Z,96581.41
2022-10-11T01:01:47.211Z,96582.10
2022-10-11T01:04:15.544Z,96579.19
2022-10-11T01:06:44.259Z,96577.86
2022-10-11T01:09:13.728Z,96580.47
2022-10-11T01:11:44.001Z,96579.98
2022-10-11T01:14:49.541Z,96581.49
2022-10-11T01:17:30.796Z,96581.87
2022-10-11T01:20:20.809Z,96579.41
2022-10-11T01:23:10.286Z,96578.89
2022-10-11T01:25:44.116Z,96571.20
2022-10-11T01:28:42.297Z,96574.41
2022-10-11T01:31:38.353Z,96570.25
2022-10-11T01:34:22.013Z,96569.05
2022-10-11T01:37:07.252Z,96566.47
2022-10-11T01:39:42.514Z,96567.52
2022-10-11T01:42:12.465Z,96566.08
2022-10-11T01:44:45.752Z,96566.38
2022-10-11T01:47:14.362Z,96567.69
2022-10-11T01:49:42.485Z,96571.27
2022-10-11T01:52:10.965Z,96571.39
2022-10-11T01:55:20.278Z,96570.98
2022-10-11T01:58:34.436Z,96576.38
2022-10-11T02:01:14.567Z,96579.24
2022-10-11T02:03:58.350Z,96581.00
2022-10-11T02:06:47.585Z,96581.48
2022-10-11T02:09:34.437Z,96582.27
2022-10-11T02:12:12.796Z,96584.73
2022-10-11T02:14:45.413Z,96585.69
2022-10-11T02:17:19.930Z,96583.35
2022-10-11T02:19:52.899Z,96581.97
2022-10-11T02:22:27.401Z,96581.59
2022-10-11T02:24:59.235Z,96580.02
2022-10-11T02:27:33.377Z,96578.80
2022-10-11T02:30:04.942Z,96576.79
2022-10-11T02:32:34.635Z,96575.70
2022-10-11T02:35:03.237Z,96579.25
2022-10-11T02:37:56.836Z,96575.06
2022-10-11T02:40:33.015Z,96582.39
2022-10-11T02:43:24.168Z,96582.46
2022-10-11T02:45:58.779Z,96586.71
2022-10-11T02:48:29.566Z,96587.52
2022-10-11T02:50:58.811Z,96590.35
2022-10-11T02:53:27.395Z,96588.08
2022-10-11T02:55:55.875Z,96591.54
2022-10-11T02:58:24.759Z,96592.05
2022-10-11T03:00:52.890Z,96593.88
2022-10-11T03:03:20.847Z,96596.96
2022-10-11T03:05:48.910Z,96597.02
2022-10-11T03:08:18.138Z,96597.48
2022-10-11T03:10:46.588Z,96600.52
2022-10-11T03:13:18.058Z,96595.92
2022-10-11T03:16:02.858Z,96598.30
2022-10-11T03:18:31.901Z,96599.09
2022-10-11T03:21:00.110Z,96597.96
2022-10-11T03:23:28.300Z,96604.38
2022-10-11T03:25:56.389Z,96602.34
2022-10-11T03:28:24.398Z,96603.73
2022-10-11T03:30:52.542Z,96604.07
2022-10-11T03:33:20.570Z,96606.83
2022-10-11T03:35:50.011Z,96609.08
2022-10-11T03:38:21.185Z,96611.00
2022-10-11T03:40:49.542Z,96612.78
2022-10-11T03:43:18.237Z,96612.32
2022-10-11T03:45:46.549Z,96616.21
2022-10-11T03:48:14.801Z,96619.54
2022-10-11T03:50:42.844Z,96619.04
2022-10-11T03:53:11.585Z,96621.48
2022-10-11T03:55:40.711Z,96624.45
2022-10-11T03:58:09.367Z,96622.15
2022-10-11T04:00:37.538Z,96625.20
2022-10-11T04:03:05.438Z,96627.42
2022-10-11T04:05:33.499Z,96624.53
2022-10-11T04:08:01.393Z,96628.25
2022-10-11T04:10:31.166Z,96631.15
2022-10-11T04:12:59.234Z,96626.89
2022-10-11T04:15:27.129Z,96631.00
2022-10-11T04:17:55.282Z,96628.71
2022-10-11T04:20:23.295Z,96628.36
2022-10-11T04:22:51.265Z,96630.16
2022-10-11T04:25:19.298Z,96627.80
2022-10-11T04:27:47.362Z,96630.06
2022-10-11T04:30:16.576Z,96626.41
2022-10-11T04:32:45.273Z,96632.29
2022-10-11T04:35:13.632Z,96632.53
2022-10-11T04:37:41.616Z,96636.30
2022-10-11T04:40:10.344Z,96637.10
2022-10-11T04:42:38.485Z,96640.25
2022-10-11T04:45:07.175Z,96639.69
2022-10-11T04:47:35.895Z,96642.15
2022-10-11T04:50:04.723Z,96642.73
2022-10-11T04:52:32.905Z,96647.28
2022-10-11T04:55:00.983Z,96647.39
2022-10-11T04:57:29.057Z,96647.69
2022-10-11T04:59:57.090Z,96649.54
2022-10-11T05:02:25.109Z,96650.94
2022-10-11T05:04:53.299Z,96652.57
2022-10-11T05:07:21.599Z,96653.70
2022-10-11T05:09:49.632Z,96653.02
2022-10-11T05:12:17.564Z,96655.43
2022-10-11T05:14:45.501Z,96659.86
2022-10-11T05:17:13.518Z,96663.54
2022-10-11T05:19:41.531Z,96665.13
2022-10-11T05:22:09.967Z,96668.74
2022-10-11T05:24:38.013Z,96671.09
2022-10-11T05:27:05.947Z,96678.60
2022-10-11T05:29:34.248Z,96679.46
2022-10-11T05:32:05.530Z,96681.79
2022-10-11T05:34:33.549Z,96683.50
2022-10-11T05:37:01.486Z,96686.23
2022-10-11T05:39:29.607Z,96690.69
2022-10-11T05:41:57.722Z,96691.39
2022-10-11T05:44:25.819Z,96694.55
2022-10-11T05:46:53.765Z,96696.25
2022-10-11T05:49:21.783Z,96698.77
2022-10-11T05:51:49.712Z,96702.41
2022-10-11T05:54:17.673Z,96705.73
2022-10-11T05:56:45.645Z,96711.00
2022-10-11T05:59:13.612Z,96712.48
2022-10-11T06:01:41.827Z,96710.84
2022-10-11T06:04:11.927Z,96711.95
2022-10-11T06:06:39.896Z,96714.77
2022-10-11T06:09:07.986Z,96721.13
2022-10-11T06:11:36.017Z,96720.50
2022-10-11T06:14:04.112Z,96723.23
2022-10-11T06:16:32.361Z,96725.88
2022-10-11T06:19:01.061Z,96723.80
2022-10-11T06:21:29.049Z,96727.20
2022-10-11T06:24:01.389Z,96729.92
2022-10-11T06:26:30.322Z,96730.39
2022-10-11T06:28:58.803Z,96732.55
2022-10-11T06:31:27.977Z,96733.36
2022-10-11T06:33:55.927Z,96740.06
2022-10-11T06:36:23.998Z,96743.92
2022-10-11T06:38:53.223Z,96745.88
2022-10-11T06:41:24.448Z,96748.59
2022-10-11T06:43:52.828Z,96751.54
2022-10-11T06:46:23.825Z,96758.16
2022-10-11T06:48:53.082Z,96760.55
2022-10-11T06:51:22.413Z,96765.84
2022-10-11T06:53:52.440Z,96771.64
2022-10-11T06:56:20.923Z,96774.02
2022-10-11T06:58:51.092Z,96773.92
2022-10-11T07:01:21.664Z,96778.55
2022-10-11T07:03:52.133Z,96780.55
2022-10-11T07:06:22.473Z,96784.02
2022-10-11T07:08:50.802Z,96780.27
2022-10-11T07:11:21.853Z,96780.70
2022-10-11T07:14:01.996Z,96781.77
2022-10-11T07:16:30.881Z,96781.38
2022-10-11T07:19:01.442Z,96784.42
2022-10-11T07:21:31.684Z,96786.76
2022-10-11T07:24:00.860Z,96789.80
2022-10-11T07:26:33.734Z,96791.43
2022-10-11T07:29:05.351Z,96793.34
2022-10-11T07:31:33.475Z,96794.39
2022-10-11T07:34:01.576Z,96797.14
2022-10-11T07:36:29.666Z,96798.55
2022-10-11T07:38:58.207Z,96799.55
2022-10-11T07:41:26.302Z,96803.69
2022-10-11T07:43:55.123Z,96803.15
2022-10-11T07:46:23.292Z,96809.48
2022-10-11T07:48:51.349Z,96813.97
2022-10-11T07:51:22.173Z,96814.52
2022-10-11T07:53:55.828Z,96819.32
2022-10-11T07:56:27.892Z,96823.48
2022-10-11T07:59:03.604Z,96825.95
2022-10-11T08:01:31.857Z,96829.35
2022-10-11T08:04:00.684Z,96828.30
2022-10-11T08:06:32.667Z,96831.48
2022-10-11T08:09:02.447Z,96830.92
2022-10-11T08:11:33.714Z,96833.18
2022-10-11T08:14:04.584Z,96829.13
2022-10-11T08:16:32.702Z,96827.13
2022-10-11T08:19:01.444Z,96833.23
2022-10-11T08:21:30.280Z,96836.27
2022-10-11T08:23:58.296Z,96840.29
2022-10-11T08:26:26.223Z,96840.64
2022-10-11T08:28:54.204Z,96844.64
2022-10-11T08:31:22.304Z,96844.16
2022-10-11T08:33:50.647Z,96843.98
2022-10-11T08:36:18.572Z,96843.23
2022-10-11T08:38:46.652Z,96845.73
2022-10-11T08:41:29.782Z,96846.05
2022-10-11T08:44:22.681Z,96840.16
2022-10-11T08:47:00.597Z,96843.70
2022-10-11T08:49:33.531Z,96838.35
2022-10-11T08:52:11.831Z,96836.52
2022-10-11T08:54:58.074Z,96833.11
2022-10-11T08:57:29.960Z,96833.10
2022-10-11T09:00:01.340Z,96831.80
2022-10-11T09:03:02.990Z,96830.48
2022-10-11T09:05:30.323Z,96836.60
2022-10-11T09:08:05.915Z,96839.33
2022-10-11T09:10:59.243Z,96844.84
2022-10-11T09:13:50.378Z,96847.63
2022-10-11T09:16:30.773Z,96853.14
2022-10-11T09:19:17.388Z,96852.31
2022-10-11T09:22:16.702Z,96853.55
2022-10-11T09:25:15.574Z,96852.58
2022-10-11T09:28:02.503Z,96852.64
2022-10-11T09:30:32.674Z,96850.95
2022-10-11T09:33:16.461Z,96849.09
2022-10-11T09:35:50.212Z,96853.16
2022-10-11T09:38:50.983Z,96854.85
2022-10-11T09:41:29.895Z,96855.55
2022-10-11T09:43:57.798Z,96856.59
2022-10-11T09:46:35.719Z,96858.08
2022-10-11T09:49:09.704Z,96857.84
2022-10-11T09:51:38.661Z,96860.14
2022-10-11T09:54:07.455Z,96861.70
2022-10-11T09:56:42.152Z,96862.69
2022-10-11T09:59:29.944Z,96865.73
2022-10-11T10:02:13.593Z,96867.90
2022-10-11T10:04:54.042Z,96870.34
2022-10-11T10:07:22.849Z,96875.60
2022-10-11T10:09:51.280Z,96874.08
2022-10-11T10:12:26.418Z,96875.14
2022-10-11T10:15:03.699Z,96873.52
2022-10-11T10:17:32.245Z,96872.59
2022-10-11T10:20:00.859Z,96879.40
2022-10-11T10:22:32.276Z,96884.44
2022-10-11T10:25:06.115Z,96883.08
2022-10-11T10:27:35.013Z,96888.61
2022-10-11T10:30:09.200Z,96889.75
2022-10-11T10:32:53.384Z,96890.51
2022-10-11T10:35:57.027Z,96883.84
2022-10-11T10:38:40.933Z,96884.89
2022-10-11T10:41:15.599Z,96883.48
2022-10-11T10:43:51.261Z,96886.92
2022-10-11T10:46:46.954Z,96890.65
2022-10-11T10:49:59.838Z,96891.77
2022-10-11T10:52:47.473Z,96894.63
2022-10-11T10:55:15.426Z,96895.91
2022-10-11T10:58:07.447Z,96897.56
2022-10-11T11:00:48.485Z,96899.06
2022-10-11T11:03:24.326Z,96898.24
2022-10-11T11:06:10.330Z,96893.27
2022-10-11T11:09:23.353Z,96897.26
2022-10-11T11:11:58.346Z,96897.99
2022-10-11T11:14:47.997Z,96899.34
2022-10-11T11:17:47.248Z,96904.21
2022-10-11T11:20:42.130Z,96904.26
2022-10-11T11:23:12.693Z,96911.23
2022-10-11T11:26:07.547Z,96912.08
2022-10-11T11:28:54.967Z,96916.91
2022-10-11T11:31:49.129Z,96916.09
2022-10-11T11:34:19.778Z,96919.11
2022-10-11T11:36:55.282Z,96920.67
2022-10-11T11:39:43.559Z,96916.63
2022-10-11T11:42:31.428Z,96918.19
2022-10-11T11:45:11.958Z,96918.09
2022-10-11T11:47:44.431Z,96916.30
2022-10-11T11:50:23.280Z,96920.04
2022-10-11T11:52:56.525Z,96918.53
2022-10-11T11:55:49.507Z,96920.48
2022-10-11T11:58:53.129Z,96925.11
2022-10-11T12:01:47.908Z,96926.11
2022-10-11T12:04:38.918Z,96927.40
2022-10-11T12:07:16.352Z,96926.39
2022-10-11T12:10:11.515Z,96922.50
2022-10-11T12:12:39.827Z,96922.44
2022-10-11T12:15:27.321Z,96925.77
2022-10-11T12:17:56.056Z,96928.83
2022-10-11T12:20:38.753Z,96927.29
2022-10-11T12:23:20.047Z,96925.85
2022-10-11T12:26:27.296Z,96925.44
2022-10-11T12:29:18.673Z,96933.04
2022-10-11T12:31:49.769Z,96929.31
2022-10-11T12:34:26.876Z,96928.67
2022-10-11T12:36:54.974Z,96932.77
2022-10-11T12:39:23.242Z,96937.16
2022-10-11T12:42:06.035Z,96941.34
2022-10-11T12:44:34.238Z,96943.92
2022-10-11T12:47:35.581Z,96946.19
2022-10-11T12:50:22.813Z,96944.12
2022-10-11T12:53:12.157Z,96947.34
2022-10-11T12:55:48.281Z,96947.10
2022-10-11T12:58:40.611Z,96947.19
2022-10-11T13:01:10.590Z,96948.50
2022-10-11T13:03:49.184Z,96948.29
2022-10-11T13:06:26.800Z,96952.75
2022-10-11T13:09:05.847Z,96950.59
2022-10-11T13:11:38.892Z,96951.30
2022-10-11T13:14:11.725Z,96950.21
2022-10-11T13:16:51.674Z,96952.45
2022-10-11T13:19:23.635Z,96955.23
2022-10-11T13:21:55.215Z,96948.65
2022-10-11T13:24:25.660Z,96951.35
2022-10-11T13:26:57.065Z,96941.50
2022-10-11T13:29:33.873Z,96944.57
2022-10-11T13:32:06.851Z,96949.11
2022-10-11T13:34:40.451Z,96946.25
2022-10-11T13:37:17.604Z,96949.32
2022-10-11T13:39:46.992Z,96947.48
2022-10-11T13:42:17.416Z,96950.82
2022-10-11T13:44:47.269Z,96956.51
2022-10-11T13:47:18.478Z,96955.27
2022-10-11T13:49:53.434Z,96961.60
2022-10-11T13:52:24.259Z,96959.81
2022-10-11T13:54:55.146Z,96957.67
2022-10-11T13:57:49.247Z,96954.32
2022-10-11T14:00:19.892Z,96950.61
2022-10-11T14:02:59.654Z,96951.27
2022-10-11T14:05:29.943Z,96951.30
2022-10-11T14:08:02.189Z,96951.85
2022-10-11T14:10:30.776Z,96954.13
2022-10-11T14:13:00.373Z,96958.45
2022-10-11T14:15:35.464Z,96956.11
2022-10-11T14:19:02.325Z,96958.82
2022-10-11T14:21:51.320Z,96957.75
2022-10-11T14:24:20.685Z,96955.69
2022-10-11T14:26:54.292Z,96959.30
2022-10-11T14:29:26.813Z,96958.73
2022-10-11T14:32:03.094Z,96956.55
2022-10-11T14:34:31.854Z,96958.02
2022-10-11T14:36:59.875Z,96957.09
2022-10-11T14:39:31.938Z,96963.19
2022-10-11T14:42:00.035Z,96963.84
2022-10-11T14:44:28.059Z,96963.60
2022-10-11T14:46:56.105Z,96964.50
2022-10-11T14:49:27.314Z,96964.05
2022-10-11T14:51:57.418Z,96964.23
2022-10-11T14:54:27.903Z,96965.41
2022-10-11T14:56:59.569Z,96964.38
2022-10-11T14:59:34.368Z,96962.48
2022-10-11T15:02:04.439Z,96960.69
2022-10-11T15:04:32.884Z,96964.84
2022-10-11T15:07:01.281Z,96968.31
2022-10-11T15:09:29.950Z,96969.33
2022-10-11T15:12:00.503Z,96969.21
2022-10-11T15:14:28.557Z,96973.66
2022-10-11T15:16:56.585Z,96971.36
2022-10-11T15:19:25.628Z,96973.58
2022-10-11T15:21:53.870Z,96976.02
2022-10-11T15:24:22.061Z,96973.36
2022-10-11T15:26:50.645Z,96973.16
2022-10-11T15:29:20.412Z,96974.58
2022-10-11T15:31:49.508Z,96980.23
2022-10-11T15:34:17.951Z,96981.75
2022-10-11T15:36:45.988Z,96985.85
2022-10-11T15:39:24.566Z,96989.50
2022-10-11T15:41:52.594Z,96992.61
2022-10-11T15:44:20.633Z,96990.45
2022-10-11T15:46:48.631Z,96995.91
2022-10-11T15:49:17.314Z,96997.23
2022-10-11T15:51:46.256Z,97002.98
2022-10-11T15:54:17.850Z,97003.90
2022-10-11T15:56:45.873Z,97006.84
2022-10-11T15:59:13.857Z,97011.06
2022-10-11T16:01:41.954Z,97009.75
2022-10-11T16:04:10.315Z,97014.52
2022-10-11T16:06:38.451Z,97017.68
2022-10-11T16:09:06.787Z,97017.58
2022-10-11T16:11:34.815Z,97025.65
2022-10-11T16:14:03.306Z,97028.23
2022-10-11T16:16:31.612Z,97030.64
2022-10-11T16:18:59.513Z,97036.29
2022-10-11T16:21:27.494Z,97039.42
2022-10-11T16:23:55.429Z,97042.51
2022-10-11T16:26:23.539Z,97044.14
2022-10-11T16:28:51.607Z,97046.59
2022-10-11T16:31:21.546Z,97048.46
2022-10-11T16:33:50.422Z,97050.65
2022-10-11T16:36:32.062Z,97051.76
2022-10-11T16:39:02.249Z,97050.71
2022-10-11T16:41:30.299Z,97050.77
2022-10-11T16:43:58.759Z,97050.39
2022-10-11T16:46:27.076Z,97051.13
2022-10-11T16:48:58.459Z,97051.29
2022-10-11T16:51:26.832Z,97053.00
2022-10-11T16:53:54.799Z,97054.30
2022-10-11T16:56:25.098Z,97057.65
2022-10-11T16:58:54.279Z,97067.02
2022-10-11T17:01:22.728Z,97068.37
2022-10-11T17:03:51.189Z,97069.02
2022-10-11T17:06:20.179Z,97069.20
2022-10-11T17:08:48.212Z,97069.20
2022-10-11T17:11:17.833Z,97066.62
2022-10-11T17:13:46.491Z,97068.83
2022-10-11T17:16:15.802Z,97072.29
2022-10-11T17:18:44.318Z,97069.91
2022-10-11T17:21:15.473Z,97072.86
2022-10-11T17:23:44.155Z,97074.58
2022-10-11T17:26:18.104Z,97069.48
2022-10-11T17:28:46.703Z,97072.64
2022-10-11T17:31:15.346Z,97072.65
2022-10-11T17:33:43.523Z,97074.80
2022-10-11T17:36:32.042Z,97075.34
2022-10-11T17:39:02.180Z,97076.38
2022-10-11T17:41:32.196Z,97078.07
2022-10-11T17:44:01.874Z,97075.95
2022-10-11T17:46:32.855Z,97074.52
2022-10-11T17:49:06.662Z,97080.32
2022-10-11T17:51:36.540Z,97078.61
2022-10-11T17:54:06.306Z,97081.45
2022-10-11T17:56:38.054Z,97084.95
2022-10-11T17:59:07.423Z,97084.69
2022-10-11T18:01:36.070Z,97087.20
2022-10-11T18:04:06.117Z,97088.16
2022-10-11T18:06:39.415Z,97094.83
2022-10-11T18:09:07.490Z,97095.20
2022-10-11T18:11:35.762Z,97093.20
2022-10-11T18:14:05.181Z,97097.66
2022-10-11T18:16:33.901Z,97094.41
2022-10-11T18:19:04.542Z,97093.81
2022-10-11T18:21:34.668Z,97088.20
2022-10-11T18:24:15.584Z,97090.21
2022-10-11T18:26:45.733Z,97093.95
2022-10-11T18:29:14.401Z,97094.04
2022-10-11T18:31:42.533Z,97094.33
2022-10-11T18:34:13.176Z,97095.92
2022-10-11T18:36:41.681Z,97094.80
2022-10-11T18:39:14.271Z,97094.59
2022-10-11T18:41:44.747Z,97098.21
2022-10-11T18:44:15.466Z,97100.45
2022-10-11T18:46:44.966Z,97101.88
2022-10-11T18:49:13.782Z,97097.55
2022-10-11T18:51:44.906Z,97102.13
2022-10-11T18:54:16.660Z,97102.77
2022-10-11T18:56:48.847Z,97103.76
2022-10-11T18:59:17.235Z,97101.87
2022-10-11T19:01:46.299Z,97102.66
2022-10-11T19:04:18.441Z,97095.38
2022-10-11T19:06:48.133Z,97102.11
2022-10-11T19:09:21.914Z,97101.63
2022-10-11T19:11:51.806Z,97100.93
2022-10-11T19:14:22.806Z,97102.30
2022-10-11T19:16:51.782Z,97106.15
2022-10-11T19:19:28.320Z,97107.39
2022-10-11T19:21:57.189Z,97109.52
2022-10-11T19:24:27.465Z,97108.48
2022-10-11T19:26:59.848Z,97109.79
2022-10-11T19:29:32.429Z,97114.96
2022-10-11T19:32:03.671Z,97117.23
2022-10-11T19:34:32.966Z,97115.45
2022-10-11T19:37:01.577Z,97114.63
2022-10-11T19:39:29.897Z,97116.54
2022-10-11T19:41:57.914Z,97122.94
2022-10-11T19:44:26.083Z,97121.35
2022-10-11T19:46:54.182Z,97121.77
2022-10-11T19:49:25.327Z,97121.39
2022-10-11T19:51:55.529Z,97120.10
2022-10-11T19:54:24.327Z,97119.56
2022-10-11T19:56:52.734Z,97122.90
2022-10-11T19:59:20.753Z,97121.66
2022-10-11T20:01:52.618Z,97121.16
2022-10-11T20:07:10.102Z,97124.52
2022-10-11T20:09:38.121Z,97122.77
2022-10-11T20:12:08.139Z,97126.16
2022-10-11T20:14:37.160Z,97126.14
2022-10-11T20:17:05.227Z,97126.59
2022-10-11T20:19:33.376Z,97129.20
2022-10-11T20:22:01.941Z,97130.36
2022-10-11T20:24:33.570Z,97131.17
2022-10-11T20:27:06.137Z,97131.73
2022-10-11T20:29:35.050Z,97130.02
2022-10-11T20:32:02.989Z,97133.97
2022-10-11T20:34:31.203Z,97131.86
2022-10-11T20:36:59.500Z,97135.09
2022-10-11T20:39:27.534Z,97129.22
2022-10-11T20:41:55.521Z,97132.09
2022-10-11T20:44:23.650Z,97133.20
2022-10-11T20:46:51.596Z,97130.38
2022-10-11T20:49:20.146Z,97132.27
2022-10-11T20:51:49.003Z,97134.33
2022-10-11T20:54:17.331Z,97135.09
2022-10-11T20:56:45.594Z,97137.96
2022-10-11T20:59:13.631Z,97139.84
2022-10-11T21:01:42.016Z,97141.88
2022-10-11T21:04:18.151Z,97142.15
2022-10-11T21:06:47.993Z,97141.69
2022-10-11T21:09:17.222Z,97143.85
2022-10-11T21:11:46.401Z,97140.12
2022-10-11T21:14:14.833Z,97139.50
2022-10-11T21:16:42.963Z,97140.09
2022-10-11T21:19:14.075Z,97139.27
2022-10-11T21:21:43.323Z,97142.34
2022-10-11T21:24:11.345Z,97142.83
2022-10-11T21:26:39.361Z,97138.98
2022-10-11T21:29:08.550Z,97142.17
2022-10-11T21:31:36.469Z,97140.80
2022-10-11T21:34:06.890Z,97140.78
2022-10-11T21:36:35.178Z,97145.19
2022-10-11T21:39:03.809Z,97144.14
2022-10-11T21:41:31.922Z,97141.55
2022-10-11T21:44:00.535Z,97141.11
2022-10-11T21:47:05.031Z,97143.14
2022-10-11T21:49:19.188Z,97145.22
2022-10-11T21:51:47.257Z,97147.77
2022-10-11T21:54:15.285Z,97146.91
2022-10-11T21:56:44.337Z,97147.36
2022-10-11T21:59:12.915Z,97149.98
2022-10-11T22:01:42.192Z,97149.60
2022-10-11T22:04:11.311Z,97144.59
2022-10-11T22:06:40.237Z,97143.60
2022-10-11T22:09:08.695Z,97142.31
2022-10-11T22:11:37.616Z,97141.88
2022-10-11T22:14:06.109Z,97141.20
2022-10-11T22:16:35.318Z,97141.85
2022-10-11T22:19:03.890Z,97138.83
2022-10-11T22:21:31.903Z,97139.68
2022-10-11T22:24:00.189Z,97143.24
2022-10-11T22:26:31.290Z,97142.83
2022-10-11T22:29:00.617Z,97137.79
2022-10-11T22:31:30.106Z,97143.27
2022-10-11T22:34:00.573Z,97142.95
2022-10-11T22:36:30.808Z,97143.35
2022-10-11T22:38:59.178Z,97143.58
2022-10-11T22:41:27.371Z,97142.46
2022-10-11T22:43:55.350Z,97140.98
2022-10-11T22:46:23.515Z,97143.47
2022-10-11T22:48:51.534Z,97139.90
2022-10-11T22:51:19.792Z,97137.27
2022-10-11T22:53:47.816Z,97140.38
2022-10-11T22:56:15.831Z,97139.93
2022-10-11T22:58:43.854Z,97140.52
2022-10-11T23:01:14.928Z,97139.63
2022-10-11T23:03:43.357Z,97139.76
2022-10-11T23:06:11.485Z,97145.59
2022-10-11T23:08:39.457Z,97141.42
2022-10-11T23:11:08.225Z,97141.22
2022-10-11T23:13:36.528Z,97144.56
2022-10-11T23:16:09.458Z,97146.56
2022-10-11T23:18:37.788Z,97144.25
2022-10-11T23:21:06.500Z,97143.02
2022-10-11T23:23:36.326Z,97139.66
2022-10-11T23:26:07.372Z,97139.78
2022-10-11T23:28:36.923Z,97144.01
2022-10-11T23:31:13.884Z,97145.16
2022-10-11T23:33:42.414Z,97147.39
2022-10-11T23:36:19.004Z,97146.32
2022-10-11T23:38:55.264Z,97149.23
2022-10-11T23:41:25.192Z,97150.14
2022-10-11T23:43:53.443Z,97149.67
2022-10-11T23:46:21.481Z,97151.25
2022-10-11T23:48:49.544Z,97153.95
2022-10-11T23:51:17.532Z,97155.42
2022-10-11T23:53:45.597Z,97156.20
2022-10-11T23:56:13.635Z,97154.52
2022-10-11T23:58:41.774Z,97153.88
